Time;durP1;ratioP1;P1;durP2;ratioP2;P2;SDS_P1;SDS_P2;PMS_P1;PMS_P2;Temp;Humidity;BMP_temperature;BMP_pressure;BME280_temperature;BME280_humidity;BME280_pressure;Samples;Min_cycle;Max_cycle;Signal;HPM_P1;HPM_P2
2022/09/01 00:01:14;;;;;;;25.97;14.23;;;;;;;15.75;59.25;99447.40;1768770;81;20966;-44
2022/09/01 00:03:41;;;;;;;25.23;16.02;;;;;;;15.76;59.05;99449.55;1750177;81;20999;-45
2022/09/01 00:06:10;;;;;;;30.30;16.87;;;;;;;15.75;58.98;99447.98;1768592;81;21139;-45
2022/09/01 00:08:38;;;;;;;29.10;16.52;;;;;;;15.72;59.06;99449.56;1768451;81;21543;-45
2022/09/01 00:11:05;;;;;;;33.60;17.52;;;;;;;15.68;59.12;99449.37;1768685;81;20979;-45
2022/09/01 00:13:33;;;;;;;31.23;18.02;;;;;;;15.62;59.54;99445.66;1768614;81;21046;-44
2022/09/01 00:16:02;;;;;;;30.62;17.62;;;;;;;15.57;59.46;99442.53;1768654;81;21501;-45
2022/09/01 00:18:31;;;;;;;31.35;17.75;;;;;;;15.49;59.60;99445.05;1768858;81;21151;-45
2022/09/01 00:21:00;;;;;;;31.37;18.25;;;;;;;15.40;59.81;99442.67;1768641;81;21034;-45
2022/09/01 00:23:28;;;;;;;39.18;19.77;;;;;;;15.30;59.87;99454.38;1768631;81;21013;-44
2022/09/01 00:25:55;;;;;;;34.63;19.35;;;;;;;15.24;60.18;99453.22;1768886;81;21074;-45
2022/09/01 00:28:22;;;;;;;34.83;20.32;;;;;;;15.27;60.00;99453.01;1764074;81;21050;-44
2022/09/01 00:30:49;;;;;;;38.50;20.27;;;;;;;15.29;60.02;99447.37;1768820;81;21136;-45
2022/09/01 00:33:16;;;;;;;37.48;21.85;;;;;;;15.26;59.97;99456.33;1768861;81;21003;-45
2022/09/01 00:35:43;;;;;;;37.15;21.12;;;;;;;15.16;60.02;99453.77;1768708;81;21503;-44
2022/09/01 00:38:10;;;;;;;39.42;22.35;;;;;;;15.09;60.32;99451.63;1768592;81;21070;-45
2022/09/01 00:40:38;;;;;;;46.30;24.90;;;;;;;15.06;60.36;99451.80;1768669;81;21003;-45
2022/09/01 00:43:24;;;;;;;42.33;24.30;;;;;;;15.01;60.49;99457.63;1768467;81;22164;-44
2022/09/01 00:45:51;;;;;;;44.93;23.70;;;;;;;14.99;60.63;99453.74;1743373;81;21025;-44
2022/09/01 00:48:20;;;;;;;43.30;24.82;;;;;;;14.95;60.67;99451.01;1768548;81;21369;-44
2022/09/01 00:50:47;;;;;;;43.63;24.52;;;;;;;14.92;60.80;99450.40;1768277;81;21050;-45
2022/09/01 00:53:14;;;;;;;37.73;22.05;;;;;;;14.88;60.79;99456.44;1768454;81;21056;-45
2022/09/01 00:55:41;;;;;;;39.27;21.85;;;;;;;14.86;60.88;99463.46;1768340;81;23199;-45
2022/09/01 00:58:08;;;;;;;37.90;21.85;;;;;;;14.84;60.70;99459.74;1768603;81;21015;-45
2022/09/01 01:00:39;;;;;;;35.65;20.25;;;;;;;14.79;60.77;99460.11;1768445;81;21001;-45
2022/09/01 01:03:12;;;;;;;34.67;19.80;;;;;;;14.81;60.82;99463.25;1768914;81;20932;-44
2022/09/01 01:05:50;;;;;;;35.55;18.17;;;;;;;14.89;60.71;99453.13;1768847;81;21074;-44
2022/09/01 01:08:18;;;;;;;32.58;18.05;;;;;;;14.93;60.55;99456.06;1767859;80;21122;-45
2022/09/01 01:11:36;;;;;;;32.48;17.35;;;;;;;14.98;60.45;99447.50;1779127;79;22730;-45
2022/09/01 01:14:16;;;;;;;28.15;15.93;;;;;;;14.92;60.41;99449.03;1738642;82;20958;-44
2022/09/01 01:16:45;;;;;;;25.43;14.70;;;;;;;14.94;60.40;99451.39;1738618;82;21572;-44
2022/09/01 01:24:59;;;;;;;;;;;;;;;14.71;60.46;99448.98;1741309;82;20977;-45
2022/09/01 01:27:33;;;;;;;30.00;15.28;;;;;;;14.63;60.53;99452.83;1738721;82;20130;-44
2022/09/01 01:30:02;;;;;;;28.80;16.20;;;;;;;14.45;60.82;99448.67;1738703;82;21113;-44
2022/09/01 01:32:32;;;;;;;26.12;15.10;;;;;;;14.36;60.88;99446.88;1733450;82;20919;-44
2022/09/01 01:35:01;;;;;;;26.85;14.15;;;;;;;14.29;61.05;99446.80;1738765;82;21493;-44
2022/09/01 01:37:31;;;;;;;26.93;13.78;;;;;;;14.22;61.17;99447.56;1738963;82;20991;-44
2022/09/01 01:39:59;;;;;;;23.83;13.72;;;;;;;14.14;61.31;99444.58;1738569;82;21606;-44
2022/09/01 01:42:27;;;;;;;22.35;13.03;;;;;;;14.11;61.30;99443.20;1738772;82;21140;-44
2022/09/01 01:44:56;;;;;;;23.52;12.28;;;;;;;14.10;61.32;99441.05;1738095;82;20962;-44
2022/09/01 01:47:24;;;;;;;22.90;13.13;;;;;;;14.12;61.40;99440.11;1752289;81;21014;-44
2022/09/01 01:49:51;;;;;;;25.37;13.20;;;;;;;14.12;61.45;99437.95;1755029;81;21017;-44
2022/09/01 01:52:19;;;;;;;25.10;13.18;;;;;;;14.12;61.49;99440.11;1755093;81;21066;-44
2022/09/01 01:54:47;;;;;;;22.87;12.75;;;;;;;14.14;61.44;99430.16;1754916;81;21200;-44
2022/09/01 01:57:16;;;;;;;19.57;12.65;;;;;;;14.17;61.33;99423.39;1754983;81;20945;-45
2022/09/01 01:59:44;;;;;;;26.67;13.83;;;;;;;14.18;61.16;99421.44;1755109;81;21010;-44
2022/09/01 02:02:11;;;;;;;23.30;12.90;;;;;;;14.18;61.04;99424.95;1754884;81;21038;-44
2022/09/01 02:04:39;;;;;;;20.17;12.35;;;;;;;14.14;61.11;99420.04;1754927;81;21580;-45
2022/09/01 02:07:11;;;;;;;24.90;12.73;;;;;;;14.08;61.14;99422.95;1754915;81;21836;-44
2022/09/01 02:09:39;;;;;;;25.85;12.90;;;;;;;14.06;61.06;99419.02;1754357;81;21449;-45
2022/09/01 02:12:08;;;;;;;17.20;9.20;;;;;;;14.02;61.20;99422.31;1742461;82;21031;-44
2022/09/01 02:14:37;;;;;;;24.47;13.45;;;;;;;13.96;61.26;99420.52;1741981;82;20978;-44
2022/09/01 02:17:06;;;;;;;21.82;12.73;;;;;;;13.90;61.30;99427.48;1741889;82;21039;-44
2022/09/01 02:19:42;;;;;;;;;;;;;;;13.87;61.30;99426.89;1744415;82;22167;-44
2022/09/01 02:22:04;;;;;;;23.05;12.53;;;;;;;13.86;61.27;99428.83;1740963;82;20166;-44
2022/09/01 02:24:31;;;;;;;20.20;11.33;;;;;;;13.84;61.46;99426.30;1741610;82;21027;-44
2022/09/01 02:26:59;;;;;;;25.17;13.15;;;;;;;13.61;61.36;99379.41;1741696;82;21022;-44
2022/09/01 02:29:28;;;;;;;23.10;13.25;;;;;;;13.92;61.33;99427.90;1742081;82;21046;-44
2022/09/01 02:31:56;;;;;;;25.05;14.98;;;;;;;13.94;61.35;99431.04;1741458;82;21146;-44
2022/09/01 02:34:27;;;;;;;22.98;13.72;;;;;;;13.93;61.34;99430.84;1741482;82;21008;-44
2022/09/01 02:36:55;;;;;;;24.80;14.73;;;;;;;13.94;61.30;99436.49;1741307;82;21090;-44
2022/09/01 02:39:28;;;;;;;28.50;15.10;;;;;;;13.91;61.29;99437.23;1741410;82;21086;-44
2022/09/01 02:41:55;;;;;;;26.25;15.28;;;;;;;13.91;61.22;99434.51;1741250;82;21051;-44
2022/09/01 02:44:29;;;;;;;29.82;16.32;;;;;;;13.92;61.12;99431.98;1735993;82;21218;-44
2022/09/01 02:46:57;;;;;;;27.60;15.60;;;;;;;13.92;61.14;99434.14;1741250;82;21014;-44
2022/09/01 02:49:27;;;;;;;27.02;15.45;;;;;;;13.90;61.15;99433.72;1741358;82;21003;-44
2022/09/01 02:51:58;;;;;;;25.90;14.10;;;;;;;13.88;61.13;99438.78;1741539;82;21557;-44
2022/09/01 02:54:26;;;;;;;29.57;16.55;;;;;;;13.86;61.11;99437.59;1741514;82;21386;-44
2022/09/01 02:56:54;;;;;;;27.67;14.28;;;;;;;13.81;61.16;99431.91;1741599;82;21554;-44
2022/09/01 02:59:26;;;;;;;26.62;15.53;;;;;;;13.79;61.16;99434.83;1741398;82;21018;-44
2022/09/01 03:01:53;;;;;;;28.27;15.53;;;;;;;13.80;61.15;99434.43;1741450;82;21047;-44
2022/09/01 03:04:21;;;;;;;26.75;14.87;;;;;;;13.81;61.19;99440.09;1741368;82;21323;-44
2022/09/01 03:06:51;;;;;;;24.87;14.95;;;;;;;13.83;61.22;99436.41;1741239;82;21023;-44
2022/09/01 03:09:17;;;;;;;28.90;14.70;;;;;;;13.85;61.09;99432.72;1741764;82;21248;-44
2022/09/01 03:11:48;;;;;;;27.95;14.95;;;;;;;13.86;61.03;99441.67;1748601;82;20957;-44
2022/09/01 03:14:15;;;;;;;29.52;15.43;;;;;;;13.86;60.94;99443.03;1751237;82;20997;-44
2022/09/01 03:16:43;;;;;;;27.25;14.60;;;;;;;13.85;60.89;99445.55;1751353;82;21021;-44
2022/09/01 03:19:11;;;;;;;27.05;15.25;;;;;;;13.85;60.84;99457.82;1751191;82;21069;-44
2022/09/01 03:21:42;;;;;;;26.20;15.58;;;;;;;13.84;60.85;99463.88;1751064;82;21148;-44
2022/09/01 03:24:13;;;;;;;27.50;14.90;;;;;;;13.80;60.74;99462.26;1751013;82;21043;-44
2022/09/01 03:26:42;;;;;;;27.82;16.40;;;;;;;13.76;60.96;99465.54;1750824;82;21543;-44
2022/09/01 03:29:09;;;;;;;26.77;16.02;;;;;;;13.70;60.94;99468.44;1751155;82;20957;-44
2022/09/01 03:31:36;;;;;;;27.87;16.90;;;;;;;13.64;61.05;99469.94;1750739;82;21593;-44
2022/09/01 03:34:04;;;;;;;30.77;18.00;;;;;;;13.60;61.20;99467.77;1750768;82;21133;-44
2022/09/01 03:36:34;;;;;;;31.20;17.12;;;;;;;13.58;61.34;99467.34;1750811;81;21025;-44
2022/09/01 03:39:01;;;;;;;30.80;18.30;;;;;;;13.56;61.17;99469.08;1750985;82;21015;-44
2022/09/01 03:41:29;;;;;;;34.58;18.98;;;;;;;13.61;61.23;99468.73;1750828;82;20969;-44
2022/09/01 03:43:57;;;;;;;38.63;20.50;;;;;;;13.68;61.20;99476.19;1750907;82;21029;-44
2022/09/01 03:46:29;;;;;;;37.42;21.05;;;;;;;13.69;61.23;99478.55;1751199;82;21139;-44
2022/09/01 03:49:00;;;;;;;42.98;22.93;;;;;;;13.70;60.96;99476.00;1750749;82;21008;-44
2022/09/01 03:51:29;;;;;;;40.03;22.15;;;;;;;13.65;61.09;99476.34;1750953;81;20965;-44
2022/09/01 03:53:56;;;;;;;38.42;22.00;;;;;;;13.64;61.17;99478.89;1750827;82;20930;-44
2022/09/01 03:56:27;;;;;;;44.35;23.32;;;;;;;13.63;61.23;99477.32;1750843;82;21479;-44
2022/09/01 03:58:56;;;;;;;;;;;;;;;13.62;61.23;99477.11;1753253;81;21212;-44
2022/09/01 04:01:24;;;;;;;44.40;25.10;;;;;;;13.58;61.38;99480.39;1750794;82;20216;-44
2022/09/01 04:03:51;;;;;;;47.38;25.70;;;;;;;13.43;61.76;99484.14;1750984;82;21005;-44
2022/09/01 04:06:22;;;;;;;48.80;25.70;;;;;;;13.43;61.91;99478.12;1750961;81;21493;-44
2022/09/01 04:08:52;;;;;;;48.10;25.40;;;;;;;13.47;61.90;99484.38;1751393;82;20981;-44
2022/09/01 04:11:22;;;;;;;45.43;27.20;;;;;;;13.56;61.82;99481.91;1753657;81;21991;-44
2022/09/01 04:13:49;;;;;;;50.75;27.48;;;;;;;13.64;61.64;99484.91;1756609;81;25258;-44
2022/09/01 04:19:24;;;;;;;50.70;28.80;;;;;;;13.59;61.54;99496.94;1756530;81;21456;-44
2022/09/01 04:21:49;;;;;;;55.10;32.65;;;;;;;13.57;61.64;99495.16;1755989;81;21080;-44
2022/09/01 04:24:17;;;;;;;65.87;39.38;;;;;;;13.57;61.69;99501.19;1756301;81;21111;-44
2022/09/01 04:26:48;;;;;;;64.62;37.60;;;;;;;13.59;61.75;99494.80;1756156;81;20976;-44
2022/09/01 04:29:26;;;;;;;74.40;41.15;;;;;;;13.59;61.60;99502.39;1756258;81;21507;-44
2022/09/01 04:31:50;;;;;;;82.20;47.05;;;;;;;13.57;61.75;99497.09;1755688;81;21089;-44
2022/09/01 04:34:21;;;;;;;83.47;45.55;;;;;;;13.55;61.67;99500.22;1756183;81;21309;-44
2022/09/01 04:36:54;;;;;;;84.22;49.20;;;;;;;13.55;61.83;99500.80;1756553;81;21519;-44
2022/09/01 04:39:17;;;;;;;72.45;39.40;;;;;;;13.53;62.07;99499.02;1755626;81;21000;-44
2022/09/01 04:41:45;;;;;;;102.02;61.58;;;;;;;13.61;62.20;99497.33;1756021;81;21057;-44
2022/09/01 04:44:17;;;;;;;108.07;65.92;;;;;;;13.69;61.94;99504.42;1756309;81;20966;-44
2022/09/01 04:46:45;;;;;;;128.53;72.90;;;;;;;13.78;61.80;99505.47;1756207;81;21033;-44
2022/09/01 04:49:14;;;;;;;137.05;81.72;;;;;;;13.79;61.54;99506.46;1756527;81;21143;-44
2022/09/01 04:51:43;;;;;;;175.75;102.22;;;;;;;13.78;61.64;99500.02;1756130;81;20960;-44
2022/09/01 04:54:13;;;;;;;211.87;123.00;;;;;;;13.83;61.71;99496.37;1756347;81;20964;-44
2022/09/01 04:56:44;;;;;;;223.47;131.65;;;;;;;13.88;61.45;99501.47;1756167;81;21564;-44
2022/09/01 04:59:13;;;;;;;239.93;142.25;;;;;;;13.92;61.60;99498.77;1756374;81;21092;-44
2022/09/01 05:01:43;;;;;;;248.32;149.05;;;;;;;13.98;61.44;99504.65;1756250;81;21235;-44
2022/09/01 05:04:19;;;;;;;259.55;160.12;;;;;;;14.01;61.25;99504.67;1756316;81;21466;-44
2022/09/01 05:06:50;;;;;;;301.55;187.72;;;;;;;13.99;61.18;99500.16;1756387;81;21064;-44
2022/09/01 05:09:18;;;;;;;298.80;183.22;;;;;;;14.01;61.26;99493.77;1756630;81;21017;-44
2022/09/01 05:12:00;;;;;;;300.75;189.37;;;;;;;14.09;61.58;99490.50;1748025;81;21563;-44
2022/09/01 05:14:29;;;;;;;330.43;209.52;;;;;;;14.26;61.50;99495.30;1743454;82;21785;-44
2022/09/01 05:16:57;;;;;;;368.90;243.25;;;;;;;14.44;61.15;99492.11;1742939;82;21587;-44
2022/09/01 05:19:28;;;;;;;338.55;213.95;;;;;;;14.61;60.56;99492.80;1743393;82;21519;-44
2022/09/01 05:21:57;;;;;;;344.55;216.50;;;;;;;14.76;60.02;99499.10;1732227;82;21573;-44
2022/09/01 05:24:29;;;;;;;345.33;222.33;;;;;;;14.88;59.96;99492.50;1742754;81;21069;-45
2022/09/01 05:26:53;;;;;;;388.93;250.23;;;;;;;15.00;59.80;99498.41;1742658;81;21411;-45
2022/09/01 05:29:21;;;;;;;434.75;292.30;;;;;;;15.12;59.28;99504.87;1742727;82;21575;-44
2022/09/01 05:31:48;;;;;;;458.85;301.30;;;;;;;15.25;59.05;99499.82;1742547;81;20981;-44
2022/09/01 05:34:18;;;;;;;441.40;298.05;;;;;;;15.33;58.74;99502.00;1742764;82;21041;-44
2022/09/01 05:36:45;;;;;;;442.77;301.45;;;;;;;15.40;58.38;99495.95;1742772;81;21092;-44
2022/09/01 05:39:12;;;;;;;438.07;296.85;;;;;;;15.44;57.84;99499.47;1742862;82;21223;-44
2022/09/01 05:41:39;;;;;;;435.40;297.40;;;;;;;15.49;58.26;99496.96;1742646;82;20970;-44
2022/09/01 05:44:07;;;;;;;424.30;283.65;;;;;;;15.59;58.12;99492.09;1732613;82;20993;-45
2022/09/01 05:46:38;;;;;;;396.93;270.75;;;;;;;15.68;58.10;99491.15;1743153;81;20941;-45
2022/09/01 05:49:07;;;;;;;394.70;262.80;;;;;;;15.75;57.88;99492.50;1743147;82;21061;-44
2022/09/01 05:51:35;;;;;;;373.93;260.02;;;;;;;15.83;58.04;99491.93;1743395;82;21076;-44
2022/09/01 05:54:03;;;;;;;384.15;255.70;;;;;;;15.89;57.55;99487.61;1743049;81;20954;-44
2022/09/01 05:56:32;;;;;;;378.40;256.27;;;;;;;15.96;57.32;99487.03;1743323;82;21505;-44
2022/09/01 05:59:01;;;;;;;387.00;264.40;;;;;;;16.02;57.34;99492.28;1743267;81;21013;-45
2022/09/01 06:01:32;;;;;;;383.15;261.57;;;;;;;16.09;57.53;99490.92;1743387;82;21087;-44
2022/09/01 06:03:59;;;;;;;369.23;258.55;;;;;;;16.19;57.43;99486.61;1742926;81;21236;-44
2022/09/01 06:06:31;;;;;;;376.48;261.20;;;;;;;16.31;56.96;99484.05;1742888;81;21036;-44
2022/09/01 06:08:58;;;;;;;378.48;262.88;;;;;;;16.36;56.29;99479.55;1742801;81;20977;-44
2022/09/01 06:11:27;;;;;;;367.15;252.15;;;;;;;16.41;56.10;99488.72;1733012;81;21092;-45
2022/09/01 06:13:57;;;;;;;347.45;235.10;;;;;;;16.46;56.10;99485.55;1756347;81;21076;-45
2022/09/01 06:16:25;;;;;;;342.05;237.57;;;;;;;16.52;55.56;99485.34;1755434;81;21136;-44
2022/09/01 06:18:52;;;;;;;372.10;247.05;;;;;;;16.58;55.29;99479.70;1754185;81;21004;-44
2022/09/01 06:21:23;;;;;;;323.87;227.60;;;;;;;16.67;55.07;99480.05;1755875;81;21567;-41
2022/09/01 06:23:52;;;;;;;303.90;201.98;;;;;;;16.74;55.03;99484.14;1755636;81;21068;-41
2022/09/01 06:26:30;;;;;;;285.02;190.15;;;;;;;16.83;54.21;99481.75;1738073;81;21036;-41
2022/09/01 06:29:02;;;;;;;255.62;170.32;;;;;;;16.92;54.40;99486.79;1756331;81;25146;-41
2022/09/01 06:31:34;;;;;;;270.12;178.62;;;;;;;17.05;54.06;99488.48;1754819;81;21024;-41
2022/09/01 06:34:02;;;;;;;288.65;188.20;;;;;;;17.13;52.57;99490.02;1756102;81;21008;-41
2022/09/01 06:36:32;;;;;;;294.87;201.05;;;;;;;17.17;52.62;99492.92;1756540;81;21025;-42
2022/09/01 06:39:00;;;;;;;291.73;185.67;;;;;;;17.21;53.04;99489.57;1756636;81;21041;-41
2022/09/01 06:41:30;;;;;;;266.52;166.28;;;;;;;17.27;53.35;99491.30;1738344;80;21858;-41
2022/09/01 06:44:00;;;;;;;196.72;127.70;;;;;;;17.39;53.72;99492.19;1752301;81;20980;-41
2022/09/01 06:46:27;;;;;;;181.05;116.08;;;;;;;17.59;53.19;99497.95;1753600;81;21064;-41
2022/09/01 06:48:57;;;;;;;216.02;137.52;;;;;;;17.73;51.11;99493.15;1751479;81;21061;-41
2022/09/01 06:51:29;;;;;;;220.55;140.43;;;;;;;17.81;50.81;99501.49;1751664;81;21076;-41
2022/09/01 06:53:58;;;;;;;208.17;133.45;;;;;;;17.88;50.01;99495.77;1756511;81;21128;-41
2022/09/01 06:56:32;;;;;;;200.93;128.18;;;;;;;17.91;48.85;99498.47;1750565;81;20973;-41
2022/09/01 06:59:03;;;;;;;164.90;105.35;;;;;;;17.89;49.51;99500.86;1755778;81;21020;-41
2022/09/01 07:01:31;;;;;;;144.15;92.90;;;;;;;17.92;49.01;99502.00;1756504;81;21868;-41
2022/09/01 07:03:58;;;;;;;100.62;63.80;;;;;;;17.97;49.70;99502.34;1756209;81;21032;-41
2022/09/01 07:06:28;;;;;;;64.45;39.83;;;;;;;18.11;49.30;99508.30;1755679;81;21226;-41
2022/09/01 07:09:15;;;;;;;56.80;34.27;;;;;;;18.22;48.18;99506.23;1709037;83;21504;-41
2022/09/01 07:11:46;;;;;;;50.70;32.30;;;;;;;18.34;47.26;99507.70;1708987;83;21042;-41
2022/09/01 07:14:15;;;;;;;39.38;23.70;;;;;;;18.40;47.04;99506.83;1689783;83;21027;-41
2022/09/01 07:16:43;;;;;;;30.92;18.95;;;;;;;18.48;47.32;99513.05;1718489;83;21040;-41
2022/09/01 07:19:14;;;;;;;26.73;15.35;;;;;;;18.50;46.65;99510.06;1718387;83;21239;-41
2022/09/01 07:21:49;;;;;;;24.70;15.58;;;;;;;18.52;46.40;99511.81;1731159;82;20916;-44
2022/09/01 07:24:19;;;;;;;20.62;12.98;;;;;;;18.53;46.42;99520.83;1735051;82;20919;-44
2022/09/01 07:26:51;;;;;;;22.55;14.85;;;;;;;18.52;46.56;99517.30;1731684;82;21044;-43
2022/09/01 07:29:21;;;;;;;25.40;15.55;;;;;;;18.55;47.19;99520.63;1722315;82;21036;-44
2022/09/01 07:31:48;;;;;;;25.12;12.65;;;;;;;18.61;47.65;99516.84;1713339;83;21225;-44
2022/09/01 07:34:16;;;;;;;20.08;12.10;;;;;;;18.65;46.77;99523.85;1718111;83;21510;-44
2022/09/01 07:36:44;;;;;;;17.32;11.75;;;;;;;18.63;46.45;99518.01;1718431;83;21032;-44
2022/09/01 07:39:12;;;;;;;14.07;9.05;;;;;;;18.58;46.70;99519.05;1717508;83;21546;-44
2022/09/01 07:41:41;;;;;;;16.10;8.55;;;;;;;18.54;46.24;99520.44;1717387;83;21008;-44
2022/09/01 07:44:29;;;;;;;12.45;8.23;;;;;;;18.52;46.50;99522.80;1677280;85;22101;-44
2022/09/01 07:46:58;;;;;;;12.33;7.40;;;;;;;18.62;46.79;99515.66;1710648;83;21009;-42
2022/09/01 07:49:26;;;;;;;11.28;5.25;;;;;;;18.62;46.79;99515.66;1716785;83;21686;-42
2022/09/01 07:51:55;;;;;;;8.85;5.30;;;;;;;18.68;45.73;99517.37;1714053;83;21036;-41
2022/09/01 07:54:24;;;;;;;7.65;4.00;;;;;;;18.64;45.91;99516.02;1710631;83;21558;-44
2022/09/01 07:56:53;;;;;;;11.97;4.37;;;;;;;18.63;45.67;99518.01;1710074;83;21586;-44
2022/09/01 07:59:20;;;;;;;6.08;3.70;;;;;;;18.64;45.92;99511.89;1710553;83;21061;-44
2022/09/01 08:01:49;;;;;;;6.15;3.10;;;;;;;18.74;45.65;99508.84;1712904;82;20981;-42
2022/09/01 08:04:21;;;;;;;5.87;3.42;;;;;;;18.90;45.50;99507.67;1717075;83;20937;-44
2022/09/01 08:06:52;;;;;;;7.12;3.00;;;;;;;19.07;45.22;99502.56;1716579;83;21088;-44
2022/09/01 08:09:21;;;;;;;4.45;2.87;;;;;;;19.26;44.69;99503.88;1689059;83;21111;-41
2022/09/01 08:11:48;;;;;;;5.08;2.87;;;;;;;19.45;43.89;99501.86;1716708;83;21540;-41
2022/09/01 08:14:16;;;;;;;4.47;2.52;;;;;;;19.65;43.90;99504.11;1712577;82;21028;-41
2022/09/01 08:16:43;;;;;;;3.52;2.20;;;;;;;19.83;41.96;99503.81;1677458;85;21037;-41
2022/09/01 08:19:11;;;;;;;6.12;2.47;;;;;;;19.92;42.55;99504.05;1711881;83;21536;-41
2022/09/01 08:21:56;;;;;;;3.25;1.72;;;;;;;20.09;42.39;99498.83;1715271;82;21257;-41
2022/09/01 08:24:27;;;;;;;5.80;2.00;;;;;;;20.25;40.87;99494.81;1738963;82;21571;-41
2022/09/01 08:26:54;;;;;;;4.12;2.22;;;;;;;20.36;40.35;99495.44;1742828;81;21225;-41
2022/09/01 08:29:22;;;;;;;2.98;1.27;;;;;;;20.46;40.87;99486.80;1742585;81;20927;-41
2022/09/01 08:31:49;;;;;;;4.47;1.70;;;;;;;20.64;40.22;99489.19;1706813;83;21072;-42
2022/09/01 08:34:16;;;;;;;4.40;1.72;;;;;;;20.82;39.93;99486.25;1742653;82;21195;-41
2022/09/01 08:36:43;;;;;;;3.67;1.70;;;;;;;21.01;39.39;99477.03;1706790;84;21025;-41
2022/09/01 08:39:11;;;;;;;2.62;1.70;;;;;;;21.22;39.63;99472.44;1742667;82;20957;-41
2022/09/01 08:42:01;;;;;;;3.05;1.70;;;;;;;21.40;39.14;99472.80;1736483;81;21049;-42
2022/09/01 08:44:54;;;;;;;2.55;1.60;;;;;;;21.58;39.23;99470.42;1728439;82;21523;-42
2022/09/01 08:47:22;;;;;;;3.67;1.75;;;;;;;21.75;38.29;99469.02;1739304;82;21135;-41
2022/09/01 08:49:49;;;;;;;2.87;1.50;;;;;;;21.83;37.93;99463.52;1742549;81;21008;-42
2022/09/01 08:52:36;;;;;;;2.17;1.12;;;;;;;21.87;37.71;99463.59;1706987;84;20938;-41
2022/09/01 08:55:29;;;;;;;1.90;0.82;;;;;;;21.94;36.98;99463.42;1742570;82;20970;-41
2022/09/01 08:57:56;;;;;;;1.57;0.98;;;;;;;22.05;36.09;99460.39;1701849;83;21111;-42
2022/09/01 09:00:28;;;;;;;1.62;0.95;;;;;;;22.02;35.74;99462.05;1706533;84;23162;-44
2022/09/01 09:03:08;;;;;;;2.87;1.00;;;;;;;22.01;36.27;99464.64;1680879;85;21070;-45
2022/09/01 09:06:18;;;;;;;0.90;0.70;;;;;;;22.00;36.46;99459.54;1687554;84;20994;-45
2022/09/01 09:08:56;;;;;;;3.87;1.12;;;;;;;21.93;35.32;99459.11;1704159;84;21088;-44
2022/09/01 09:11:39;;;;;;;2.73;1.07;;;;;;;21.73;35.23;99468.69;1702640;84;21089;-44
2022/09/01 09:14:46;;;;;;;1.72;0.78;;;;;;;21.57;36.00;99465.32;1700097;84;21556;-44
2022/09/01 09:17:15;;;;;;;2.98;0.90;;;;;;;21.52;36.13;99466.62;1707023;84;21046;-42
2022/09/01 09:19:45;;;;;;;2.25;0.93;;;;;;;21.47;35.66;99465.75;1699136;84;21871;-42
2022/09/01 09:22:16;;;;;;;2.30;0.90;;;;;;;21.46;36.54;99466.17;1731945;82;21080;-42
2022/09/01 09:24:54;;;;;;;3.15;1.02;;;;;;;21.47;36.28;99461.61;1734599;82;21069;-41
2022/09/01 09:27:30;;;;;;;4.03;0.95;;;;;;;21.52;36.88;99460.31;1734453;82;21317;-41
2022/09/01 09:30:03;;;;;;;1.42;1.00;;;;;;;21.53;36.30;99463.26;1735229;82;20961;-42
2022/09/01 09:32:52;;;;;;;2.47;1.20;;;;;;;21.46;37.06;99462.03;1742958;82;21021;-41
2022/09/01 09:35:38;;;;;;;2.05;0.70;;;;;;;21.45;37.04;99462.63;1744438;81;21009;-41
2022/09/01 09:38:21;;;;;;;2.77;0.80;;;;;;;21.50;35.72;99454.45;1706994;83;21088;-41
2022/09/01 09:40:56;;;;;;;1.00;0.60;;;;;;;21.51;35.50;99460.14;1743022;82;21093;-41
2022/09/01 09:43:23;;;;;;;2.00;0.85;;;;;;;21.49;35.25;99461.19;1707309;84;21554;-41
2022/09/01 09:45:51;;;;;;;1.02;0.78;;;;;;;21.53;35.11;99464.64;1707239;84;21072;-41
2022/09/01 09:48:30;;;;;;;1.95;0.85;;;;;;;21.64;34.78;99463.75;1663066;84;20945;-42
2022/09/01 09:51:16;;;;;;;3.47;1.10;;;;;;;21.78;34.51;99464.81;1743177;82;21049;-42
2022/09/01 09:53:43;;;;;;;1.57;1.00;;;;;;;21.94;34.97;99465.41;1731655;82;21229;-42
2022/09/01 09:56:23;;;;;;;1.87;1.00;;;;;;;22.16;34.41;99457.36;1707235;83;20964;-42
2022/09/01 09:58:50;;;;;;;;;;;;;;;22.36;34.00;99457.39;1745805;82;21497;-42
2022/09/01 10:01:25;;;;;;;4.28;0.85;;;;;;;22.56;33.82;99449.56;1743292;82;21591;-42
2022/09/01 10:03:56;;;;;;;2.42;0.80;;;;;;;22.75;34.43;99452.15;1707525;84;21029;-42
2022/09/01 10:06:36;;;;;;;1.55;0.93;;;;;;;23.11;33.61;99453.86;1708056;83;21902;-42
2022/09/01 10:09:10;;;;;;;2.25;0.98;;;;;;;23.35;32.54;99457.24;1707406;84;21033;-42
2022/09/01 10:11:43;;;;;;;0.82;0.80;;;;;;;23.53;32.60;99460.10;1742770;81;21021;-42
2022/09/01 10:14:21;;;;;;;3.75;1.02;;;;;;;23.66;32.68;99457.47;1750661;81;21647;-42
2022/09/01 10:16:57;;;;;;;2.67;1.70;;;;;;;23.79;32.68;99452.68;1756219;81;21033;-42
2022/09/01 10:19:24;;;;;;;5.33;1.10;;;;;;;23.86;32.17;99460.59;1756336;81;21263;-42
2022/09/01 10:21:51;;;;;;;1.50;0.80;;;;;;;23.93;30.64;99455.58;1756302;81;21071;-42
2022/09/01 10:24:31;;;;;;;2.40;0.82;;;;;;;23.99;30.81;99457.17;1756474;81;21563;-42
2022/09/01 10:27:10;;;;;;;3.80;0.95;;;;;;;23.89;30.38;99456.91;1755255;81;21812;-41
2022/09/01 10:29:41;;;;;;;4.08;0.93;;;;;;;23.69;31.06;99462.72;1753941;81;21552;-41
2022/09/01 10:32:12;;;;;;;2.55;0.78;;;;;;;23.49;31.34;99453.27;1756290;81;23108;-41
2022/09/01 10:34:39;;;;;;;2.90;0.60;;;;;;;23.51;31.23;99455.61;1720263;83;21004;-41
2022/09/01 10:37:06;;;;;;;1.10;0.70;;;;;;;23.77;30.53;99451.56;1720396;83;21016;-41
2022/09/01 10:39:34;;;;;;;1.55;0.78;;;;;;;24.13;29.72;99429.75;1718548;83;21615;-42
2022/09/01 10:42:07;;;;;;;2.22;0.80;;;;;;;24.24;28.65;99450.97;1659162;85;21008;-42
2022/09/01 10:44:56;;;;;;;1.50;0.80;;;;;;;23.98;29.58;99445.31;1692617;84;21247;-42
2022/09/01 10:47:28;;;;;;;9.90;5.28;;;;;;;23.71;30.25;99459.68;1673610;84;20973;-42
2022/09/01 10:49:58;;;;;;;2.75;1.30;;;;;;;23.55;31.24;99449.34;1697398;84;21029;-42
2022/09/01 10:52:46;;;;;;;2.35;1.00;;;;;;;23.61;30.40;99455.88;1697664;84;21004;-42
2022/09/01 10:55:35;;;;;;;3.10;1.20;;;;;;;23.65;30.57;99455.92;1697437;84;21004;-42
2022/09/01 10:58:22;;;;;;;2.77;0.87;;;;;;;23.71;31.07;99436.76;1697657;84;21671;-42
2022/09/01 11:00:51;;;;;;;6.03;1.00;;;;;;;23.86;30.66;99436.45;1696941;84;21028;-41
2022/09/01 11:03:25;;;;;;;17.07;5.12;;;;;;;23.99;28.87;99439.17;1697537;84;21812;-42
2022/09/01 11:06:03;;;;;;;3.05;1.62;;;;;;;24.02;30.23;99432.72;1697082;84;20977;-42
2022/09/01 11:08:36;;;;;;;3.98;1.00;;;;;;;24.23;30.36;99435.56;1697601;84;21024;-42
2022/09/01 11:11:17;;;;;;;2.80;1.35;;;;;;;24.58;29.96;99439.05;1697300;84;21522;-42
2022/09/01 11:13:48;;;;;;;2.10;1.20;;;;;;;24.90;29.93;99435.09;1694389;83;20949;-42
2022/09/01 11:16:40;;;;;;;0.90;0.78;;;;;;;25.09;28.57;99434.56;1689261;85;21052;-42
2022/09/01 11:19:37;;;;;;;3.00;1.07;;;;;;;25.10;27.85;99423.63;1689176;85;21026;-42
2022/09/01 11:22:15;;;;;;;3.33;1.52;;;;;;;25.17;27.47;99435.84;1689218;84;21522;-42
2022/09/01 11:24:47;;;;;;;1.20;1.00;;;;;;;25.26;28.13;99435.88;1688945;85;23178;-42
2022/09/01 11:27:49;;;;;;;1.30;0.85;;;;;;;25.22;27.77;99430.31;1689011;85;21021;-42
2022/09/01 11:30:23;;;;;;;2.70;0.98;;;;;;;25.20;27.88;99429.37;1677209;85;21020;-42
2022/09/01 11:32:56;;;;;;;1.72;1.00;;;;;;;25.29;27.68;99418.91;1689253;85;21053;-42
2022/09/01 11:35:25;;;;;;;6.97;1.62;;;;;;;25.44;27.23;99428.98;1689602;85;21524;-42
2022/09/01 11:37:55;;;;;;;2.67;0.80;;;;;;;25.48;26.96;99428.23;1689426;85;21835;-42
2022/09/01 11:40:31;;;;;;;1.05;0.80;;;;;;;25.49;26.83;99429.00;1696825;84;21004;-42
2022/09/01 11:43:00;;;;;;;1.90;0.80;;;;;;;25.65;27.51;99422.44;1696416;84;21020;-42
2022/09/01 11:45:33;;;;;;;2.50;0.95;;;;;;;25.93;26.57;99428.19;1696595;84;21534;-42
2022/09/01 11:48:06;;;;;;;2.00;0.75;;;;;;;26.11;26.12;99428.19;1696409;84;21032;-42
2022/09/01 11:50:37;;;;;;;2.08;0.70;;;;;;;26.21;26.02;99424.20;1689305;85;21207;-42